createdAt,value
2023-02-09T00:08:59.492Z,102336.70
2023-02-09T00:19:03.094Z,102323.58
2023-02-09T00:29:08.777Z,102320.42
2023-02-09T00:39:16.253Z,102322.27
2023-02-09T00:49:20.391Z,102325.96
2023-02-09T00:59:23.967Z,102306.17
2023-02-09T01:09:29.949Z,102278.41
2023-02-09T01:19:35.024Z,102255.67
2023-02-09T01:29:42.520Z,102236.91
2023-02-09T01:39:48.826Z,102223.91
2023-02-09T01:49:54.467Z,102215.24
2023-02-09T02:00:07.937Z,102204.98
2023-02-09T02:10:17.779Z,102188.64
2023-02-09T02:20:51.806Z,102180.95
2023-02-09T02:31:13.887Z,102172.62
2023-02-09T02:42:02.292Z,102161.85
2023-02-09T02:52:10.963Z,102154.59
2023-02-09T03:02:34.268Z,102145.02
2023-02-09T03:12:54.804Z,102137.27
2023-02-09T03:23:02.974Z,102123.13
2023-02-09T03:33:25.123Z,102105.02
2023-02-09T03:43:49.707Z,102101.84
2023-02-09T03:53:53.700Z,102101.75
2023-02-09T04:03:59.193Z,102095.04
2023-02-09T04:14:04.937Z,102076.43
2023-02-09T04:24:09.171Z,102060.08
2023-02-09T04:34:17.197Z,102045.66
2023-02-09T04:44:21.488Z,102033.13
2023-02-09T04:54:25.023Z,102024.02
2023-02-09T05:04:30.258Z,102012.64
2023-02-09T05:14:36.561Z,102012.23
2023-02-09T05:24:42.012Z,102006.23
2023-02-09T05:34:45.769Z,101997.73
2023-02-09T05:44:53.379Z,101997.20
2023-02-09T05:54:57.010Z,101994.92
2023-02-09T06:05:00.638Z,101986.60
2023-02-09T06:15:10.254Z,101983.29
2023-02-09T06:25:13.788Z,101982.42
2023-02-09T06:35:17.475Z,101982.38
2023-02-09T06:45:21.025Z,101987.29
2023-02-09T06:55:24.642Z,101986.02
2023-02-09T07:05:28.247Z,101984.41
2023-02-09T07:15:34.063Z,101981.39
2023-02-09T07:25:37.595Z,101974.04
2023-02-09T07:35:43.392Z,101970.84
2023-02-09T07:45:48.325Z,101963.49
2023-02-09T07:55:51.843Z,101958.87
2023-02-09T08:06:00.816Z,101956.10
2023-02-09T08:16:07.913Z,101950.71
2023-02-09T08:26:14.182Z,101939.29
2023-02-09T08:36:20.187Z,101924.25
2023-02-09T08:46:26.156Z,101914.00
2023-02-09T08:56:30.136Z,101914.36
2023-02-09T09:06:34.958Z,101909.06
2023-02-09T09:16:40.478Z,101896.27
2023-02-09T09:26:44.136Z,101887.80
2023-02-09T09:36:50.757Z,101880.09
2023-02-09T09:46:55.056Z,101878.49
2023-02-09T09:56:59.365Z,101865.64
2023-02-09T10:07:14.679Z,101864.05
2023-02-09T10:17:18.232Z,101842.77
2023-02-09T10:27:31.346Z,101836.02
2023-02-09T10:37:39.815Z,101822.70
2023-02-09T10:47:57.693Z,101805.84
2023-02-09T10:58:10.881Z,101786.40
2023-02-09T11:08:14.492Z,101771.63
2023-02-09T11:18:25.745Z,101750.58
2023-02-09T11:28:39.446Z,101722.08
2023-02-09T11:38:53.190Z,101699.66
2023-02-09T11:49:15.730Z,101691.91
2023-02-09T11:59:31.636Z,101675.20
2023-02-09T12:10:14.753Z,101656.02
2023-02-09T12:20:46.284Z,101643.02
2023-02-09T12:30:50.120Z,101637.09
2023-02-09T12:41:13.302Z,101620.90
2023-02-09T12:51:53.579Z,101598.68
2023-02-09T13:02:06.117Z,101581.18
2023-02-09T13:12:29.263Z,101560.35
2023-02-09T13:23:10.246Z,101529.48
2023-02-09T13:33:41.645Z,101504.18
2023-02-09T13:43:47.162Z,101477.92
2023-02-09T13:54:02.288Z,101453.98
2023-02-09T14:04:05.969Z,101433.02
2023-02-09T14:14:59.278Z,101421.26
2023-02-09T14:25:20.533Z,101401.58
2023-02-09T14:35:26.536Z,101394.52
2023-02-09T14:45:44.637Z,101409.98
2023-02-09T14:55:48.928Z,101412.48
2023-02-09T15:06:03.221Z,101411.44
2023-02-09T15:16:09.180Z,101426.50
2023-02-09T15:26:22.869Z,101421.02
2023-02-09T15:36:27.041Z,101427.56
2023-02-09T15:46:51.274Z,101424.14
2023-02-09T15:56:56.871Z,101401.90
2023-02-09T16:07:00.495Z,101403.85
2023-02-09T16:17:08.989Z,101393.63
2023-02-09T16:27:31.132Z,101386.14
2023-02-09T16:37:37.240Z,101390.09
2023-02-09T16:47:45.710Z,101400.14
2023-02-09T16:57:54.978Z,101392.80
2023-02-09T17:08:03.531Z,101373.81
2023-02-09T17:18:09.682Z,101361.40
2023-02-09T17:28:14.479Z,101364.45
2023-02-09T17:38:23.393Z,101348.95
2023-02-09T17:48:27.084Z,101338.02
2023-02-09T17:58:30.846Z,101322.47
2023-02-09T18:08:36.027Z,101332.60
2023-02-09T18:18:43.343Z,101316.66
2023-02-09T18:28:46.822Z,101305.30
2023-02-09T18:38:55.223Z,101304.59
2023-02-09T18:48:59.077Z,101278.91
2023-02-09T18:59:04.792Z,101278.39
2023-02-09T19:09:10.924Z,101255.85
2023-02-09T19:19:16.483Z,101220.84
2023-02-09T19:29:20.421Z,101205.15
2023-02-09T19:39:31.172Z,101180.09
2023-02-09T19:49:35.359Z,101193.41
2023-02-09T19:59:39.029Z,101185.05
2023-02-09T20:09:42.965Z,101193.66
2023-02-09T20:19:46.786Z,101205.48
2023-02-09T20:30:51.653Z,101188.62
2023-02-09T20:40:55.268Z,101161.77
2023-02-09T20:50:58.869Z,101168.92
2023-02-09T21:01:06.219Z,101165.38
2023-02-09T21:11:10.284Z,101151.98
2023-02-09T21:21:19.282Z,101141.04
2023-02-09T21:31:26.674Z,101126.55
2023-02-09T21:41:49.191Z,101106.90
2023-02-09T21:51:52.871Z,101102.23
2023-02-09T22:01:57.414Z,101093.70
2023-02-09T22:12:05.363Z,101098.42
2023-02-09T22:22:10.916Z,101089.48
2023-02-09T22:32:14.434Z,101071.73
2023-02-09T22:42:18.836Z,101050.02
2023-02-09T22:52:22.605Z,101047.60
2023-02-09T23:02:26.285Z,101042.26
2023-02-09T23:12:29.933Z,101027.14
2023-02-09T23:22:33.673Z,101010.80
2023-02-09T23:32:37.317Z,100993.80
2023-02-09T23:42:40.932Z,100972.87
2023-02-09T23:52:44.543Z,100964.16
